sensor_id;sensor_type;location;lat;lon;timestamp;P1;durP1;ratioP1;P2;durP2;ratioP2
58990;SDS011;44781;53.444;14.476;2023-02-28T00:01:12;36.30;;;22.40;;
58990;SDS011;44781;53.444;14.476;2023-02-28T00:03:40;34.00;;;22.00;;
58990;SDS011;44781;53.444;14.476;2023-02-28T00:06:07;34.20;;;22.10;;
58990;SDS011;44781;53.444;14.476;2023-02-28T00:08:36;39.20;;;24.40;;
58990;SDS011;44781;53.444;14.476;2023-02-28T00:11:06;35.70;;;22.00;;
58990;SDS011;44781;53.444;14.476;2023-02-28T00:13:35;37.30;;;22.40;;
58990;SDS011;44781;53.444;14.476;2023-02-28T00:16:08;37.10;;;23.30;;
58990;SDS011;44781;53.444;14.476;2023-02-28T00:18:37;35.20;;;22.70;;
58990;SDS011;44781;53.444;14.476;2023-02-28T00:21:05;33.50;;;21.40;;
58990;SDS011;44781;53.444;14.476;2023-02-28T00:23:33;37.20;;;23.80;;
58990;SDS011;44781;53.444;14.476;2023-02-28T00:26:00;35.10;;;22.60;;
58990;SDS011;44781;53.444;14.476;2023-02-28T00:28:28;36.80;;;23.80;;
58990;SDS011;44781;53.444;14.476;2023-02-28T00:30:55;34.60;;;22.20;;
58990;SDS011;44781;53.444;14.476;2023-02-28T00:33:24;32.90;;;21.40;;
58990;SDS011;44781;53.444;14.476;2023-02-28T00:35:51;37.80;;;22.60;;
58990;SDS011;44781;53.444;14.476;2023-02-28T00:38:18;39.00;;;23.30;;
58990;SDS011;44781;53.444;14.476;2023-02-28T00:40:45;36.10;;;24.30;;
58990;SDS011;44781;53.444;14.476;2023-02-28T00:43:13;38.50;;;24.00;;
58990;SDS011;44781;53.444;14.476;2023-02-28T00:45:40;36.00;;;24.20;;
58990;SDS011;44781;53.444;14.476;2023-02-28T00:48:09;38.90;;;24.30;;
58990;SDS011;44781;53.444;14.476;2023-02-28T00:50:36;35.90;;;23.40;;
58990;SDS011;44781;53.444;14.476;2023-02-28T00:53:04;37.90;;;23.10;;
58990;SDS011;44781;53.444;14.476;2023-02-28T00:55:31;34.40;;;21.80;;
58990;SDS011;44781;53.444;14.476;2023-02-28T00:57:58;39.90;;;23.10;;
58990;SDS011;44781;53.444;14.476;2023-02-28T01:00:25;38.50;;;24.70;;
58990;SDS011;44781;53.444;14.476;2023-02-28T01:02:53;36.40;;;24.80;;
58990;SDS011;44781;53.444;14.476;2023-02-28T01:05:23;37.80;;;23.80;;
58990;SDS011;44781;53.444;14.476;2023-02-28T01:07:51;37.80;;;24.00;;
58990;SDS011;44781;53.444;14.476;2023-02-28T01:10:19;42.00;;;24.60;;
58990;SDS011;44781;53.444;14.476;2023-02-28T01:12:47;38.80;;;24.30;;
58990;SDS011;44781;53.444;14.476;2023-02-28T01:15:16;39.40;;;24.80;;
58990;SDS011;44781;53.444;14.476;2023-02-28T01:17:45;38.40;;;24.50;;
58990;SDS011;44781;53.444;14.476;2023-02-28T01:20:13;38.40;;;23.20;;
58990;SDS011;44781;53.444;14.476;2023-02-28T01:22:40;37.30;;;24.60;;
58990;SDS011;44781;53.444;14.476;2023-02-28T01:25:08;35.60;;;22.70;;
58990;SDS011;44781;53.444;14.476;2023-02-28T01:27:35;38.50;;;25.40;;
58990;SDS011;44781;53.444;14.476;2023-02-28T01:30:02;38.50;;;24.80;;
58990;SDS011;44781;53.444;14.476;2023-02-28T01:32:30;37.10;;;24.30;;
58990;SDS011;44781;53.444;14.476;2023-02-28T01:34:57;36.20;;;24.10;;
58990;SDS011;44781;53.444;14.476;2023-02-28T01:37:24;39.40;;;23.90;;
58990;SDS011;44781;53.444;14.476;2023-02-28T01:39:54;40.10;;;24.60;;
58990;SDS011;44781;53.444;14.476;2023-02-28T01:42:21;38.60;;;24.90;;
58990;SDS011;44781;53.444;14.476;2023-02-28T01:47:29;41.30;;;24.30;;
58990;SDS011;44781;53.444;14.476;2023-02-28T01:50:00;37.40;;;24.20;;
58990;SDS011;44781;53.444;14.476;2023-02-28T01:52:30;41.80;;;25.30;;
58990;SDS011;44781;53.444;14.476;2023-02-28T01:55:00;43.00;;;24.80;;
58990;SDS011;44781;53.444;14.476;2023-02-28T01:57:34;44.30;;;26.10;;
58990;SDS011;44781;53.444;14.476;2023-02-28T02:00:11;43.40;;;25.50;;
58990;SDS011;44781;53.444;14.476;2023-02-28T02:02:47;42.50;;;25.20;;
58990;SDS011;44781;53.444;14.476;2023-02-28T02:05:24;47.80;;;26.50;;
58990;SDS011;44781;53.444;14.476;2023-02-28T02:07:55;38.00;;;23.20;;
58990;SDS011;44781;53.444;14.476;2023-02-28T02:10:35;40.30;;;26.10;;
58990;SDS011;44781;53.444;14.476;2023-02-28T02:15:49;41.50;;;23.40;;
58990;SDS011;44781;53.444;14.476;2023-02-28T02:24:03;45.10;;;24.30;;
58990;SDS011;44781;53.444;14.476;2023-02-28T02:29:31;41.90;;;24.70;;
58990;SDS011;44781;53.444;14.476;2023-02-28T02:34:47;44.20;;;25.20;;
58990;SDS011;44781;53.444;14.476;2023-02-28T02:47:50;33.60;;;20.20;;
58990;SDS011;44781;53.444;14.476;2023-02-28T02:50:23;38.70;;;23.10;;
58990;SDS011;44781;53.444;14.476;2023-02-28T02:53:00;31.80;;;20.40;;
58990;SDS011;44781;53.444;14.476;2023-02-28T02:57:59;44.40;;;24.20;;
58990;SDS011;44781;53.444;14.476;2023-02-28T03:00:34;39.70;;;23.80;;
58990;SDS011;44781;53.444;14.476;2023-02-28T03:03:05;41.60;;;25.80;;
58990;SDS011;44781;53.444;14.476;2023-02-28T03:08:14;38.40;;;22.70;;
58990;SDS011;44781;53.444;14.476;2023-02-28T03:10:43;35.10;;;21.20;;
58990;SDS011;44781;53.444;14.476;2023-02-28T03:22:08;30.40;;;19.80;;
58990;SDS011;44781;53.444;14.476;2023-02-28T03:27:28;30.10;;;16.90;;
58990;SDS011;44781;53.444;14.476;2023-02-28T03:30:24;30.10;;;18.60;;
58990;SDS011;44781;53.444;14.476;2023-02-28T03:33:03;33.50;;;20.60;;
58990;SDS011;44781;53.444;14.476;2023-02-28T03:35:47;36.10;;;20.00;;
58990;SDS011;44781;53.444;14.476;2023-02-28T03:38:24;42.30;;;23.00;;
58990;SDS011;44781;53.444;14.476;2023-02-28T03:41:03;41.60;;;22.10;;
58990;SDS011;44781;53.444;14.476;2023-02-28T03:43:36;37.60;;;23.10;;
58990;SDS011;44781;53.444;14.476;2023-02-28T03:46:09;37.80;;;22.00;;
58990;SDS011;44781;53.444;14.476;2023-02-28T03:51:16;38.20;;;20.80;;
58990;SDS011;44781;53.444;14.476;2023-02-28T03:53:47;36.40;;;21.40;;
58990;SDS011;44781;53.444;14.476;2023-02-28T03:56:29;38.00;;;21.90;;
58990;SDS011;44781;53.444;14.476;2023-02-28T03:59:10;34.80;;;21.80;;
58990;SDS011;44781;53.444;14.476;2023-02-28T04:01:42;40.40;;;23.50;;
58990;SDS011;44781;53.444;14.476;2023-02-28T04:04:15;36.40;;;21.20;;
58990;SDS011;44781;53.444;14.476;2023-02-28T04:06:44;40.00;;;22.10;;
58990;SDS011;44781;53.444;14.476;2023-02-28T04:09:12;37.70;;;22.50;;
58990;SDS011;44781;53.444;14.476;2023-02-28T04:11:45;37.30;;;23.10;;
58990;SDS011;44781;53.444;14.476;2023-02-28T04:14:16;37.60;;;21.10;;
58990;SDS011;44781;53.444;14.476;2023-02-28T04:16:43;42.30;;;22.10;;
58990;SDS011;44781;53.444;14.476;2023-02-28T04:19:11;34.60;;;21.30;;
58990;SDS011;44781;53.444;14.476;2023-02-28T04:21:43;34.80;;;21.30;;
58990;SDS011;44781;53.444;14.476;2023-02-28T04:24:17;37.40;;;20.30;;
58990;SDS011;44781;53.444;14.476;2023-02-28T04:26:48;34.80;;;20.50;;
58990;SDS011;44781;53.444;14.476;2023-02-28T04:29:22;37.60;;;22.50;;
58990;SDS011;44781;53.444;14.476;2023-02-28T04:31:54;36.60;;;21.90;;
58990;SDS011;44781;53.444;14.476;2023-02-28T04:34:26;37.70;;;21.90;;
58990;SDS011;44781;53.444;14.476;2023-02-28T04:36:56;45.40;;;26.20;;
58990;SDS011;44781;53.444;14.476;2023-02-28T04:39:24;42.10;;;25.60;;
58990;SDS011;44781;53.444;14.476;2023-02-28T04:41:51;41.50;;;23.80;;
58990;SDS011;44781;53.444;14.476;2023-02-28T04:44:18;41.80;;;22.90;;
58990;SDS011;44781;53.444;14.476;2023-02-28T04:46:47;38.10;;;21.80;;
58990;SDS011;44781;53.444;14.476;2023-02-28T04:49:14;39.60;;;23.70;;
58990;SDS011;44781;53.444;14.476;2023-02-28T04:51:41;42.40;;;24.60;;
58990;SDS011;44781;53.444;14.476;2023-02-28T04:54:09;41.00;;;24.30;;
58990;SDS011;44781;53.444;14.476;2023-02-28T04:56:36;40.40;;;24.40;;
58990;SDS011;44781;53.444;14.476;2023-02-28T04:59:04;39.30;;;24.00;;
58990;SDS011;44781;53.444;14.476;2023-02-28T05:01:32;41.20;;;23.40;;
58990;SDS011;44781;53.444;14.476;2023-02-28T05:04:03;39.50;;;23.10;;
58990;SDS011;44781;53.444;14.476;2023-02-28T05:06:31;38.30;;;22.50;;
58990;SDS011;44781;53.444;14.476;2023-02-28T05:08:59;38.40;;;23.30;;
58990;SDS011;44781;53.444;14.476;2023-02-28T05:11:27;44.20;;;25.00;;
58990;SDS011;44781;53.444;14.476;2023-02-28T05:14:10;40.60;;;22.90;;
58990;SDS011;44781;53.444;14.476;2023-02-28T05:16:39;35.40;;;22.70;;
58990;SDS011;44781;53.444;14.476;2023-02-28T05:19:06;38.50;;;23.10;;
58990;SDS011;44781;53.444;14.476;2023-02-28T05:21:40;39.70;;;23.90;;
58990;SDS011;44781;53.444;14.476;2023-02-28T05:24:16;40.30;;;24.00;;
58990;SDS011;44781;53.444;14.476;2023-02-28T05:26:49;35.20;;;22.90;;
58990;SDS011;44781;53.444;14.476;2023-02-28T05:29:18;39.40;;;22.30;;
58990;SDS011;44781;53.444;14.476;2023-02-28T05:31:46;35.50;;;21.20;;
58990;SDS011;44781;53.444;14.476;2023-02-28T05:34:13;36.80;;;21.90;;
58990;SDS011;44781;53.444;14.476;2023-02-28T05:36:42;33.20;;;20.40;;
58990;SDS011;44781;53.444;14.476;2023-02-28T05:39:09;37.10;;;21.50;;
58990;SDS011;44781;53.444;14.476;2023-02-28T05:41:40;32.30;;;19.70;;
58990;SDS011;44781;53.444;14.476;2023-02-28T05:44:09;34.60;;;21.10;;
58990;SDS011;44781;53.444;14.476;2023-02-28T05:46:37;34.10;;;19.60;;
58990;SDS011;44781;53.444;14.476;2023-02-28T05:49:05;34.60;;;21.70;;
58990;SDS011;44781;53.444;14.476;2023-02-28T05:51:33;36.40;;;21.50;;
58990;SDS011;44781;53.444;14.476;2023-02-28T05:54:03;35.50;;;21.30;;
58990;SDS011;44781;53.444;14.476;2023-02-28T05:56:31;33.60;;;20.40;;
58990;SDS011;44781;53.444;14.476;2023-02-28T05:59:03;30.60;;;19.40;;
58990;SDS011;44781;53.444;14.476;2023-02-28T06:04:15;36.00;;;22.80;;
58990;SDS011;44781;53.444;14.476;2023-02-28T06:06:45;35.20;;;20.30;;
58990;SDS011;44781;53.444;14.476;2023-02-28T06:09:14;34.20;;;21.50;;
58990;SDS011;44781;53.444;14.476;2023-02-28T06:11:43;36.50;;;22.60;;
58990;SDS011;44781;53.444;14.476;2023-02-28T06:14:13;37.80;;;23.20;;
58990;SDS011;44781;53.444;14.476;2023-02-28T06:16:44;37.10;;;23.00;;
58990;SDS011;44781;53.444;14.476;2023-02-28T06:19:15;39.90;;;22.90;;
58990;SDS011;44781;53.444;14.476;2023-02-28T06:21:45;36.40;;;22.30;;
58990;SDS011;44781;53.444;14.476;2023-02-28T06:24:17;35.80;;;21.60;;
58990;SDS011;44781;53.444;14.476;2023-02-28T06:26:45;37.70;;;23.40;;
58990;SDS011;44781;53.444;14.476;2023-02-28T06:29:23;37.80;;;23.90;;
58990;SDS011;44781;53.444;14.476;2023-02-28T06:31:50;47.60;;;27.00;;
58990;SDS011;44781;53.444;14.476;2023-02-28T06:34:40;44.50;;;26.60;;
58990;SDS011;44781;53.444;14.476;2023-02-28T06:37:07;44.40;;;24.30;;
58990;SDS011;44781;53.444;14.476;2023-02-28T06:39:34;45.70;;;25.60;;
58990;SDS011;44781;53.444;14.476;2023-02-28T06:42:02;47.80;;;25.60;;
58990;SDS011;44781;53.444;14.476;2023-02-28T06:44:29;47.10;;;26.90;;
58990;SDS011;44781;53.444;14.476;2023-02-28T06:47:02;44.00;;;25.30;;
58990;SDS011;44781;53.444;14.476;2023-02-28T06:49:32;39.10;;;24.60;;
58990;SDS011;44781;53.444;14.476;2023-02-28T06:52:01;41.40;;;23.60;;
58990;SDS011;44781;53.444;14.476;2023-02-28T06:54:29;44.20;;;25.40;;
58990;SDS011;44781;53.444;14.476;2023-02-28T06:56:57;38.50;;;24.30;;
58990;SDS011;44781;53.444;14.476;2023-02-28T06:59:25;35.00;;;23.20;;
58990;SDS011;44781;53.444;14.476;2023-02-28T07:01:54;35.30;;;23.20;;
58990;SDS011;44781;53.444;14.476;2023-02-28T07:04:22;31.50;;;21.50;;
58990;SDS011;44781;53.444;14.476;2023-02-28T07:06:49;39.80;;;24.80;;
58990;SDS011;44781;53.444;14.476;2023-02-28T07:09:16;38.80;;;26.40;;
58990;SDS011;44781;53.444;14.476;2023-02-28T07:11:43;37.40;;;26.50;;
58990;SDS011;44781;53.444;14.476;2023-02-28T07:14:10;38.40;;;26.50;;
58990;SDS011;44781;53.444;14.476;2023-02-28T07:16:38;37.70;;;24.80;;
58990;SDS011;44781;53.444;14.476;2023-02-28T07:19:05;37.50;;;25.30;;
58990;SDS011;44781;53.444;14.476;2023-02-28T07:21:32;43.60;;;27.20;;
58990;SDS011;44781;53.444;14.476;2023-02-28T07:23:59;43.10;;;30.60;;
58990;SDS011;44781;53.444;14.476;2023-02-28T07:26:27;53.20;;;34.00;;
58990;SDS011;44781;53.444;14.476;2023-02-28T07:28:54;55.20;;;34.60;;
58990;SDS011;44781;53.444;14.476;2023-02-28T07:31:22;52.50;;;34.50;;
58990;SDS011;44781;53.444;14.476;2023-02-28T07:33:49;53.50;;;35.20;;
58990;SDS011;44781;53.444;14.476;2023-02-28T07:36:17;50.70;;;35.60;;
58990;SDS011;44781;53.444;14.476;2023-02-28T07:38:46;51.20;;;34.90;;
58990;SDS011;44781;53.444;14.476;2023-02-28T07:41:17;54.80;;;35.80;;
58990;SDS011;44781;53.444;14.476;2023-02-28T07:43:45;51.80;;;35.90;;
58990;SDS011;44781;53.444;14.476;2023-02-28T07:46:13;53.60;;;35.30;;
58990;SDS011;44781;53.444;14.476;2023-02-28T07:48:42;57.00;;;37.70;;
58990;SDS011;44781;53.444;14.476;2023-02-28T07:51:10;51.40;;;35.70;;
58990;SDS011;44781;53.444;14.476;2023-02-28T07:53:37;54.40;;;34.70;;
58990;SDS011;44781;53.444;14.476;2023-02-28T07:56:04;52.00;;;33.70;;
58990;SDS011;44781;53.444;14.476;2023-02-28T07:58:32;48.20;;;33.10;;
58990;SDS011;44781;53.444;14.476;2023-02-28T08:01:06;53.00;;;33.30;;
58990;SDS011;44781;53.444;14.476;2023-02-28T08:03:35;51.20;;;36.00;;
58990;SDS011;44781;53.444;14.476;2023-02-28T08:06:03;53.80;;;33.90;;
58990;SDS011;44781;53.444;14.476;2023-02-28T08:08:32;52.60;;;34.80;;
58990;SDS011;44781;53.444;14.476;2023-02-28T08:11:00;56.20;;;37.20;;
58990;SDS011;44781;53.444;14.476;2023-02-28T08:13:28;65.70;;;45.10;;
58990;SDS011;44781;53.444;14.476;2023-02-28T08:15:57;66.50;;;45.20;;
58990;SDS011;44781;53.444;14.476;2023-02-28T08:18:24;63.00;;;44.10;;
58990;SDS011;44781;53.444;14.476;2023-02-28T08:20:51;48.50;;;36.10;;
58990;SDS011;44781;53.444;14.476;2023-02-28T08:23:18;44.30;;;31.50;;
58990;SDS011;44781;53.444;14.476;2023-02-28T08:25:52;39.10;;;28.50;;
58990;SDS011;44781;53.444;14.476;2023-02-28T08:28:21;44.30;;;31.40;;
58990;SDS011;44781;53.444;14.476;2023-02-28T08:30:48;48.30;;;34.30;;
58990;SDS011;44781;53.444;14.476;2023-02-28T08:33:15;47.40;;;32.80;;
58990;SDS011;44781;53.444;14.476;2023-02-28T08:35:42;52.60;;;32.10;;
58990;SDS011;44781;53.444;14.476;2023-02-28T08:38:10;43.60;;;29.20;;
58990;SDS011;44781;53.444;14.476;2023-02-28T08:40:38;44.60;;;30.80;;
58990;SDS011;44781;53.444;14.476;2023-02-28T08:43:05;49.10;;;33.20;;
58990;SDS011;44781;53.444;14.476;2023-02-28T08:45:32;53.20;;;36.20;;
58990;SDS011;44781;53.444;14.476;2023-02-28T08:47:59;47.60;;;33.30;;
58990;SDS011;44781;53.444;14.476;2023-02-28T08:50:27;43.70;;;29.80;;
58990;SDS011;44781;53.444;14.476;2023-02-28T08:52:54;38.50;;;27.60;;
58990;SDS011;44781;53.444;14.476;2023-02-28T08:55:22;33.10;;;23.70;;
58990;SDS011;44781;53.444;14.476;2023-02-28T08:57:49;30.00;;;21.40;;
58990;SDS011;44781;53.444;14.476;2023-02-28T09:00:16;27.00;;;17.90;;
58990;SDS011;44781;53.444;14.476;2023-02-28T09:02:44;25.30;;;16.70;;
58990;SDS011;44781;53.444;14.476;2023-02-28T09:05:11;25.90;;;14.40;;
58990;SDS011;44781;53.444;14.476;2023-02-28T09:07:39;20.30;;;14.00;;
58990;SDS011;44781;53.444;14.476;2023-02-28T09:10:07;21.20;;;14.30;;
58990;SDS011;44781;53.444;14.476;2023-02-28T09:12:35;21.90;;;14.60;;
58990;SDS011;44781;53.444;14.476;2023-02-28T09:15:03;23.50;;;16.10;;
58990;SDS011;44781;53.444;14.476;2023-02-28T09:17:31;24.00;;;14.60;;
58990;SDS011;44781;53.444;14.476;2023-02-28T09:20:00;24.60;;;14.40;;
58990;SDS011;44781;53.444;14.476;2023-02-28T09:22:28;24.00;;;13.90;;
58990;SDS011;44781;53.444;14.476;2023-02-28T09:24:55;25.80;;;16.20;;
58990;SDS011;44781;53.444;14.476;2023-02-28T09:27:22;19.80;;;13.00;;
58990;SDS011;44781;53.444;14.476;2023-02-28T09:29:50;20.30;;;13.10;;
58990;SDS011;44781;53.444;14.476;2023-02-28T09:32:17;17.00;;;10.70;;
58990;SDS011;44781;53.444;14.476;2023-02-28T09:34:44;15.20;;;9.00;;
58990;SDS011;44781;53.444;14.476;2023-02-28T09:37:12;16.20;;;10.00;;
58990;SDS011;44781;53.444;14.476;2023-02-28T09:39:39;20.40;;;12.60;;
58990;SDS011;44781;53.444;14.476;2023-02-28T09:42:11;19.70;;;12.90;;
58990;SDS011;44781;53.444;14.476;2023-02-28T09:44:47;20.80;;;12.70;;
58990;SDS011;44781;53.444;14.476;2023-02-28T09:50:08;19.80;;;11.90;;
58990;SDS011;44781;53.444;14.476;2023-02-28T09:52:47;18.10;;;11.90;;
58990;SDS011;44781;53.444;14.476;2023-02-28T09:55:25;17.90;;;10.80;;
58990;SDS011;44781;53.444;14.476;2023-02-28T09:57:58;20.80;;;12.50;;
58990;SDS011;44781;53.444;14.476;2023-02-28T10:00:30;20.00;;;12.90;;
58990;SDS011;44781;53.444;14.476;2023-02-28T10:08:23;17.80;;;10.60;;
58990;SDS011;44781;53.444;14.476;2023-02-28T10:11:09;16.30;;;9.90;;
58990;SDS011;44781;53.444;14.476;2023-02-28T10:13:47;14.30;;;7.80;;
58990;SDS011;44781;53.444;14.476;2023-02-28T10:16:30;11.50;;;6.50;;
58990;SDS011;44781;53.444;14.476;2023-02-28T10:21:36;10.00;;;5.30;;
58990;SDS011;44781;53.444;14.476;2023-02-28T10:24:19;8.50;;;4.60;;
58990;SDS011;44781;53.444;14.476;2023-02-28T10:26:58;11.80;;;4.80;;
58990;SDS011;44781;53.444;14.476;2023-02-28T10:29:28;7.40;;;3.60;;
58990;SDS011;44781;53.444;14.476;2023-02-28T10:34:28;9.50;;;4.60;;
58990;SDS011;44781;53.444;14.476;2023-02-28T10:36:56;10.00;;;4.70;;
58990;SDS011;44781;53.444;14.476;2023-02-28T10:39:34;9.80;;;5.00;;
58990;SDS011;44781;53.444;14.476;2023-02-28T10:42:04;10.00;;;5.40;;
58990;SDS011;44781;53.444;14.476;2023-02-28T10:44:45;9.80;;;4.90;;
58990;SDS011;44781;53.444;14.476;2023-02-28T10:47:16;11.50;;;5.30;;
58990;SDS011;44781;53.444;14.476;2023-02-28T10:49:48;9.80;;;5.00;;
58990;SDS011;44781;53.444;14.476;2023-02-28T10:52:35;10.10;;;5.10;;
58990;SDS011;44781;53.444;14.476;2023-02-28T11:01:45;9.80;;;4.40;;
58990;SDS011;44781;53.444;14.476;2023-02-28T11:04:19;15.20;;;8.00;;
58990;SDS011;44781;53.444;14.476;2023-02-28T11:06:57;10.90;;;5.60;;
58990;SDS011;44781;53.444;14.476;2023-02-28T11:09:34;10.10;;;5.20;;
58990;SDS011;44781;53.444;14.476;2023-02-28T11:12:06;8.70;;;4.50;;
58990;SDS011;44781;53.444;14.476;2023-02-28T11:14:49;10.00;;;5.10;;
58990;SDS011;44781;53.444;14.476;2023-02-28T11:17:20;7.30;;;3.90;;
58990;SDS011;44781;53.444;14.476;2023-02-28T11:19:57;7.60;;;3.40;;
58990;SDS011;44781;53.444;14.476;2023-02-28T11:22:31;7.60;;;3.60;;
58990;SDS011;44781;53.444;14.476;2023-02-28T11:25:20;7.60;;;3.80;;
58990;SDS011;44781;53.444;14.476;2023-02-28T11:28:04;7.40;;;3.80;;
58990;SDS011;44781;53.444;14.476;2023-02-28T11:30:38;7.80;;;3.90;;
58990;SDS011;44781;53.444;14.476;2023-02-28T11:33:32;7.40;;;4.00;;
58990;SDS011;44781;53.444;14.476;2023-02-28T11:36:23;7.20;;;4.00;;
58990;SDS011;44781;53.444;14.476;2023-02-28T11:39:07;8.90;;;4.70;;
58990;SDS011;44781;53.444;14.476;2023-02-28T11:41:49;9.10;;;4.70;;
58990;SDS011;44781;53.444;14.476;2023-02-28T11:47:33;6.90;;;3.60;;
58990;SDS011;44781;53.444;14.476;2023-02-28T11:53:10;7.80;;;4.40;;
58990;SDS011;44781;53.444;14.476;2023-02-28T12:08:15;8.00;;;4.10;;
58990;SDS011;44781;53.444;14.476;2023-02-28T12:13:46;8.80;;;4.50;;
58990;SDS011;44781;53.444;14.476;2023-02-28T12:16:40;7.60;;;4.20;;
58990;SDS011;44781;53.444;14.476;2023-02-28T12:19:36;7.40;;;3.60;;
58990;SDS011;44781;53.444;14.476;2023-02-28T12:22:33;8.50;;;4.30;;
58990;SDS011;44781;53.444;14.476;2023-02-28T12:28:14;8.00;;;3.90;;
58990;SDS011;44781;53.444;14.476;2023-02-28T12:30:56;7.20;;;3.70;;
58990;SDS011;44781;53.444;14.476;2023-02-28T12:33:31;6.90;;;3.60;;
58990;SDS011;44781;53.444;14.476;2023-02-28T12:36:05;9.00;;;3.80;;
58990;SDS011;44781;53.444;14.476;2023-02-28T12:39:29;7.80;;;4.10;;
58990;SDS011;44781;53.444;14.476;2023-02-28T12:42:22;7.00;;;3.80;;
58990;SDS011;44781;53.444;14.476;2023-02-28T12:51:47;7.00;;;3.20;;
58990;SDS011;44781;53.444;14.476;2023-02-28T12:54:35;7.80;;;3.80;;
58990;SDS011;44781;53.444;14.476;2023-02-28T12:58:38;8.60;;;3.80;;
58990;SDS011;44781;53.444;14.476;2023-02-28T13:10:18;7.90;;;3.80;;
58990;SDS011;44781;53.444;14.476;2023-02-28T13:13:45;7.20;;;3.50;;
58990;SDS011;44781;53.444;14.476;2023-02-28T13:16:47;6.80;;;3.90;;
58990;SDS011;44781;53.444;14.476;2023-02-28T13:37:49;7.00;;;3.50;;
58990;SDS011;44781;53.444;14.476;2023-02-28T13:40:28;8.20;;;3.80;;
58990;SDS011;44781;53.444;14.476;2023-02-28T13:43:06;7.60;;;3.80;;
58990;SDS011;44781;53.444;14.476;2023-02-28T13:45:35;8.70;;;4.20;;
58990;SDS011;44781;53.444;14.476;2023-02-28T13:48:14;8.00;;;3.70;;
58990;SDS011;44781;53.444;14.476;2023-02-28T13:50:49;8.20;;;3.70;;
58990;SDS011;44781;53.444;14.476;2023-02-28T13:53:26;8.80;;;3.70;;
58990;SDS011;44781;53.444;14.476;2023-02-28T13:59:05;7.70;;;3.20;;
58990;SDS011;44781;53.444;14.476;2023-02-28T14:06:54;6.40;;;2.70;;
58990;SDS011;44781;53.444;14.476;2023-02-28T14:09:26;6.90;;;3.30;;
58990;SDS011;44781;53.444;14.476;2023-02-28T14:12:18;6.90;;;3.10;;
58990;SDS011;44781;53.444;14.476;2023-02-28T14:18:26;5.80;;;3.00;;
58990;SDS011;44781;53.444;14.476;2023-02-28T14:21:01;6.50;;;2.90;;
58990;SDS011;44781;53.444;14.476;2023-02-28T14:24:16;6.20;;;2.80;;
58990;SDS011;44781;53.444;14.476;2023-02-28T14:27:24;6.60;;;3.00;;
58990;SDS011;44781;53.444;14.476;2023-02-28T14:30:47;7.30;;;3.10;;
58990;SDS011;44781;53.444;14.476;2023-02-28T14:39:10;6.20;;;3.00;;
58990;SDS011;44781;53.444;14.476;2023-02-28T14:42:03;6.10;;;2.60;;
58990;SDS011;44781;53.444;14.476;2023-02-28T14:45:17;7.10;;;3.10;;
58990;SDS011;44781;53.444;14.476;2023-02-28T14:51:05;8.00;;;3.10;;
58990;SDS011;44781;53.444;14.476;2023-02-28T14:53:45;6.40;;;3.20;;
58990;SDS011;44781;53.444;14.476;2023-02-28T14:56:51;6.10;;;2.70;;
58990;SDS011;44781;53.444;14.476;2023-02-28T14:59:28;7.10;;;2.80;;
58990;SDS011;44781;53.444;14.476;2023-02-28T15:02:16;4.90;;;2.50;;
58990;SDS011;44781;53.444;14.476;2023-02-28T15:04:53;8.90;;;3.10;;
58990;SDS011;44781;53.444;14.476;2023-02-28T15:07:23;5.90;;;2.80;;
58990;SDS011;44781;53.444;14.476;2023-02-28T15:10:29;5.60;;;2.50;;
58990;SDS011;44781;53.444;14.476;2023-02-28T15:13:06;5.50;;;2.40;;
58990;SDS011;44781;53.444;14.476;2023-02-28T15:18:23;5.70;;;2.30;;
58990;SDS011;44781;53.444;14.476;2023-02-28T15:27:28;3.70;;;1.60;;
58990;SDS011;44781;53.444;14.476;2023-02-28T15:30:26;3.80;;;1.70;;
58990;SDS011;44781;53.444;14.476;2023-02-28T15:35:44;6.80;;;3.20;;
58990;SDS011;44781;53.444;14.476;2023-02-28T15:40:45;9.70;;;3.10;;
58990;SDS011;44781;53.444;14.476;2023-02-28T15:45:51;9.30;;;3.90;;
58990;SDS011;44781;53.444;14.476;2023-02-28T15:48:31;8.20;;;3.60;;
58990;SDS011;44781;53.444;14.476;2023-02-28T15:51:18;10.10;;;4.70;;
58990;SDS011;44781;53.444;14.476;2023-02-28T15:56:32;11.10;;;5.10;;
58990;SDS011;44781;53.444;14.476;2023-02-28T15:59:03;10.00;;;4.90;;
58990;SDS011;44781;53.444;14.476;2023-02-28T16:01:36;11.40;;;5.30;;
58990;SDS011;44781;53.444;14.476;2023-02-28T16:04:06;11.20;;;5.20;;
58990;SDS011;44781;53.444;14.476;2023-02-28T16:09:30;8.90;;;4.90;;
58990;SDS011;44781;53.444;14.476;2023-02-28T16:12:01;11.10;;;6.10;;
58990;SDS011;44781;53.444;14.476;2023-02-28T16:14:32;10.90;;;5.70;;
58990;SDS011;44781;53.444;14.476;2023-02-28T16:17:19;10.80;;;5.70;;
58990;SDS011;44781;53.444;14.476;2023-02-28T16:19:55;11.00;;;5.20;;
58990;SDS011;44781;53.444;14.476;2023-02-28T16:22:22;9.90;;;5.10;;
58990;SDS011;44781;53.444;14.476;2023-02-28T16:24:50;12.20;;;5.40;;
58990;SDS011;44781;53.444;14.476;2023-02-28T16:27:25;12.10;;;5.30;;
58990;SDS011;44781;53.444;14.476;2023-02-28T16:29:57;11.30;;;5.70;;
58990;SDS011;44781;53.444;14.476;2023-02-28T16:32:25;10.40;;;5.60;;
58990;SDS011;44781;53.444;14.476;2023-02-28T16:34:52;10.80;;;5.00;;
58990;SDS011;44781;53.444;14.476;2023-02-28T16:37:19;11.30;;;6.00;;
58990;SDS011;44781;53.444;14.476;2023-02-28T16:39:46;12.50;;;6.80;;
58990;SDS011;44781;53.444;14.476;2023-02-28T16:42:25;13.70;;;6.50;;
58990;SDS011;44781;53.444;14.476;2023-02-28T16:44:55;14.60;;;8.40;;
58990;SDS011;44781;53.444;14.476;2023-02-28T16:47:22;16.50;;;8.70;;
58990;SDS011;44781;53.444;14.476;2023-02-28T16:49:50;15.90;;;8.60;;
58990;SDS011;44781;53.444;14.476;2023-02-28T16:52:18;17.70;;;8.50;;
58990;SDS011;44781;53.444;14.476;2023-02-28T16:54:48;17.60;;;8.70;;
58990;SDS011;44781;53.444;14.476;2023-02-28T16:57:25;18.90;;;9.90;;
58990;SDS011;44781;53.444;14.476;2023-02-28T16:59:52;16.10;;;8.70;;
58990;SDS011;44781;53.444;14.476;2023-02-28T17:02:19;16.50;;;9.10;;
58990;SDS011;44781;53.444;14.476;2023-02-28T17:04:47;15.20;;;7.80;;
58990;SDS011;44781;53.444;14.476;2023-02-28T17:07:17;14.60;;;8.00;;
58990;SDS011;44781;53.444;14.476;2023-02-28T17:09:44;15.70;;;8.50;;
58990;SDS011;44781;53.444;14.476;2023-02-28T17:12:12;16.70;;;8.90;;
58990;SDS011;44781;53.444;14.476;2023-02-28T17:14:41;13.90;;;7.60;;
58990;SDS011;44781;53.444;14.476;2023-02-28T17:17:10;19.90;;;9.20;;
58990;SDS011;44781;53.444;14.476;2023-02-28T17:19:45;14.80;;;8.70;;
58990;SDS011;44781;53.444;14.476;2023-02-28T17:22:12;16.80;;;9.40;;
58990;SDS011;44781;53.444;14.476;2023-02-28T17:24:39;23.70;;;15.20;;
58990;SDS011;44781;53.444;14.476;2023-02-28T17:27:09;22.80;;;14.70;;
58990;SDS011;44781;53.444;14.476;2023-02-28T17:29:41;22.00;;;13.70;;
58990;SDS011;44781;53.444;14.476;2023-02-28T17:32:09;21.80;;;11.00;;
58990;SDS011;44781;53.444;14.476;2023-02-28T17:34:37;21.10;;;13.00;;
58990;SDS011;44781;53.444;14.476;2023-02-28T17:37:05;24.30;;;16.60;;
58990;SDS011;44781;53.444;14.476;2023-02-28T17:39:34;26.50;;;18.30;;
58990;SDS011;44781;53.444;14.476;2023-02-28T17:42:03;24.80;;;15.50;;